createdAt,value
2024-02-03T00:00:07.525Z,9.41
2024-02-03T00:02:34.697Z,9.45
2024-02-03T00:05:01.893Z,9.42
2024-02-03T00:07:29.788Z,9.46
2024-02-03T00:09:56.400Z,9.46
2024-02-03T00:12:27.188Z,9.47
2024-02-03T00:14:53.976Z,9.50
2024-02-03T00:17:20.477Z,9.47
2024-02-03T00:19:47.240Z,9.50
2024-02-03T00:22:14.231Z,9.48
2024-02-03T00:24:41.091Z,9.52
2024-02-03T00:27:07.943Z,9.55
2024-02-03T00:29:35.635Z,9.54
2024-02-03T00:32:02.533Z,9.56
2024-02-03T00:34:29.237Z,9.56
2024-02-03T00:36:55.922Z,9.55
2024-02-03T00:39:22.475Z,9.52
2024-02-03T00:41:48.991Z,9.57
2024-02-03T00:44:16.645Z,9.57
2024-02-03T00:46:43.276Z,9.56
2024-02-03T00:49:09.886Z,9.58
2024-02-03T00:51:36.556Z,9.59
2024-02-03T00:54:03.109Z,9.56
2024-02-03T00:56:29.935Z,9.56
2024-02-03T00:58:56.435Z,9.55
2024-02-03T01:01:23.046Z,9.50
2024-02-03T01:03:49.825Z,9.52
2024-02-03T01:06:16.553Z,9.52
2024-02-03T01:08:43.194Z,9.52
2024-02-03T01:11:09.744Z,9.51
2024-02-03T01:13:36.360Z,9.52
2024-02-03T01:16:03.034Z,9.51
2024-02-03T01:18:29.638Z,9.48
2024-02-03T01:20:56.163Z,9.47
2024-02-03T01:23:22.807Z,9.49
2024-02-03T01:25:50.710Z,9.48
2024-02-03T01:28:17.299Z,9.47
2024-02-03T01:30:44.041Z,9.47
2024-02-03T01:33:10.688Z,9.46
2024-02-03T01:35:37.322Z,9.45
2024-02-03T01:38:03.895Z,9.43
2024-02-03T01:40:30.441Z,9.44
2024-02-03T01:43:03.635Z,9.43
2024-02-03T01:45:30.443Z,9.41
2024-02-03T01:47:58.182Z,9.41
2024-02-03T01:50:26.827Z,9.38
2024-02-03T01:52:54.222Z,9.37
2024-02-03T01:55:21.449Z,9.36
2024-02-03T01:57:49.643Z,9.38
2024-02-03T02:00:17.199Z,9.39
2024-02-03T02:02:43.889Z,9.38
2024-02-03T02:05:10.940Z,9.35
2024-02-03T02:07:44.579Z,9.37
2024-02-03T02:10:11.521Z,9.37
2024-02-03T02:12:38.353Z,9.33
2024-02-03T02:15:05.771Z,9.37
2024-02-03T02:17:33.722Z,9.35
2024-02-03T02:20:07.405Z,9.38
2024-02-03T02:22:34.944Z,9.35
2024-02-03T02:25:01.783Z,9.38
2024-02-03T02:27:28.359Z,9.32
2024-02-03T02:29:54.897Z,9.31
2024-02-03T02:32:21.576Z,9.28
2024-02-03T02:34:48.437Z,9.27
2024-02-03T02:37:15.132Z,9.24
2024-02-03T02:39:41.890Z,9.24
2024-02-03T02:42:08.564Z,9.24
2024-02-03T02:44:35.077Z,9.21
2024-02-03T02:47:01.653Z,9.23
2024-02-03T02:49:28.217Z,9.21
2024-02-03T02:51:54.983Z,9.21
2024-02-03T02:54:21.530Z,9.21
2024-02-03T02:56:48.072Z,9.21
2024-02-03T02:59:14.602Z,9.22
2024-02-03T03:01:41.161Z,9.20
2024-02-03T03:04:07.861Z,9.19
2024-02-03T03:06:34.750Z,9.20
2024-02-03T03:09:01.410Z,9.16
2024-02-03T03:11:27.960Z,9.18
2024-02-03T03:13:54.598Z,9.19
2024-02-03T03:16:21.113Z,9.16
2024-02-03T03:18:47.823Z,9.17
2024-02-03T03:21:14.495Z,9.21
2024-02-03T03:23:41.702Z,9.23
2024-02-03T03:26:08.262Z,9.23
2024-02-03T03:28:34.736Z,9.21
2024-02-03T03:31:01.276Z,9.25
2024-02-03T03:33:28.068Z,9.26
2024-02-03T03:35:54.712Z,9.28
2024-02-03T03:38:21.290Z,9.27
2024-02-03T03:40:47.747Z,9.28
2024-02-03T03:43:14.290Z,9.31
2024-02-03T03:45:40.864Z,9.30
2024-02-03T03:48:08.264Z,9.30
2024-02-03T03:50:34.859Z,9.31
2024-02-03T03:53:01.390Z,9.28
2024-02-03T03:55:27.926Z,9.32
2024-02-03T03:57:54.516Z,9.32
2024-02-03T04:00:21.408Z,9.33
2024-02-03T04:02:47.942Z,9.35
2024-02-03T04:05:14.805Z,9.33
2024-02-03T04:07:41.279Z,9.36
2024-02-03T04:10:08.175Z,9.34
2024-02-03T04:12:34.749Z,9.34
2024-02-03T04:15:02.919Z,9.35
2024-02-03T04:17:29.393Z,9.36
2024-02-03T04:19:56.126Z,9.35
2024-02-03T04:22:22.788Z,9.34
2024-02-03T04:24:49.412Z,9.37
2024-02-03T04:27:16.146Z,9.34
2024-02-03T04:29:43.236Z,9.34
2024-02-03T04:32:10.390Z,9.33
2024-02-03T04:34:37.046Z,9.36
2024-02-03T04:37:03.779Z,9.37
2024-02-03T04:39:30.464Z,9.38
2024-02-03T04:41:56.959Z,9.35
2024-02-03T04:44:23.471Z,9.34
2024-02-03T04:46:50.031Z,9.37
2024-02-03T04:49:16.775Z,9.35
2024-02-03T04:51:43.489Z,9.37
2024-02-03T04:54:10.219Z,9.36
2024-02-03T04:56:36.740Z,9.39
2024-02-03T04:59:03.315Z,9.39
2024-02-03T05:01:30.363Z,9.38
2024-02-03T05:03:57.004Z,9.37
2024-02-03T05:06:23.654Z,9.39
2024-02-03T05:08:50.299Z,9.42
2024-02-03T05:11:16.963Z,9.42
2024-02-03T05:13:43.521Z,9.45
2024-02-03T05:16:10.026Z,9.46
2024-02-03T05:18:36.661Z,9.46
2024-02-03T05:21:03.375Z,9.48
2024-02-03T05:23:29.850Z,9.45
2024-02-03T05:25:56.347Z,9.47
2024-02-03T05:28:23.002Z,9.47
2024-02-03T05:30:49.812Z,9.46
2024-02-03T05:33:16.741Z,9.46
2024-02-03T05:35:43.380Z,9.51
2024-02-03T05:38:09.964Z,9.51
2024-02-03T05:40:36.490Z,9.51
2024-02-03T05:43:03.159Z,9.53
2024-02-03T05:45:29.961Z,9.52
2024-02-03T05:47:56.583Z,9.53
2024-02-03T05:50:23.210Z,9.54
2024-02-03T05:52:49.728Z,9.55
2024-02-03T05:55:16.308Z,9.54
2024-02-03T05:57:54.297Z,9.59
2024-02-03T06:00:21.812Z,9.57
2024-02-03T06:02:48.971Z,9.60
2024-02-03T06:05:17.102Z,9.57
2024-02-03T06:07:43.920Z,9.58
2024-02-03T06:10:11.023Z,9.64
2024-02-03T06:12:37.802Z,9.63
2024-02-03T06:15:04.850Z,9.63
2024-02-03T06:17:31.712Z,9.63
2024-02-03T06:19:58.424Z,9.61
2024-02-03T06:22:25.053Z,9.62
2024-02-03T06:24:51.893Z,9.62
2024-02-03T06:27:18.681Z,9.55
2024-02-03T06:29:46.748Z,9.57
2024-02-03T06:32:13.419Z,9.54
2024-02-03T06:34:39.981Z,9.52
2024-02-03T06:37:06.627Z,9.52
2024-02-03T06:39:33.358Z,9.51
2024-02-03T06:41:59.862Z,9.49
2024-02-03T06:44:26.523Z,9.47
2024-02-03T06:46:53.105Z,9.45
2024-02-03T06:49:19.735Z,9.47
2024-02-03T06:51:46.360Z,9.45
2024-02-03T06:54:12.942Z,9.43
2024-02-03T06:56:39.613Z,9.45
2024-02-03T06:59:06.159Z,9.43
2024-02-03T07:01:32.752Z,9.37
2024-02-03T07:03:59.501Z,9.42
2024-02-03T07:06:26.178Z,9.42
2024-02-03T07:08:52.704Z,9.37
2024-02-03T07:11:19.203Z,9.38
2024-02-03T07:13:45.784Z,9.43
2024-02-03T07:16:12.421Z,9.45
2024-02-03T07:18:39.136Z,9.43
2024-02-03T07:21:05.909Z,9.43
2024-02-03T07:23:32.436Z,9.44
2024-02-03T07:25:59.069Z,9.42
2024-02-03T07:28:26.018Z,9.40
2024-02-03T07:30:52.578Z,9.39
2024-02-03T07:33:19.340Z,9.41
2024-02-03T07:35:45.949Z,9.36
2024-02-03T07:38:12.542Z,9.38
2024-02-03T07:40:39.093Z,9.38
2024-02-03T07:43:05.609Z,9.36
2024-02-03T07:45:32.195Z,9.34
2024-02-03T07:47:58.778Z,9.35
2024-02-03T07:50:25.394Z,9.38
2024-02-03T07:52:51.967Z,9.41
2024-02-03T07:55:18.484Z,9.42
2024-02-03T07:57:47.861Z,9.43
2024-02-03T08:00:16.849Z,9.48
2024-02-03T08:02:43.421Z,9.47
2024-02-03T08:05:09.983Z,9.49
2024-02-03T08:07:37.670Z,9.48
2024-02-03T08:10:04.782Z,9.54
2024-02-03T08:12:32.549Z,9.54
2024-02-03T08:14:59.224Z,9.55
2024-02-03T08:17:25.792Z,9.56
2024-02-03T08:19:52.432Z,9.59
2024-02-03T08:22:19.076Z,9.60
2024-02-03T08:24:45.938Z,9.63
2024-02-03T08:27:12.632Z,9.66
2024-02-03T08:29:39.157Z,9.66
2024-02-03T08:32:06.170Z,9.70
2024-02-03T08:34:32.927Z,9.73
2024-02-03T08:36:59.686Z,9.72
2024-02-03T08:41:55.574Z,9.79
2024-02-03T08:44:22.099Z,9.83
2024-02-03T08:46:48.631Z,9.88
2024-02-03T08:49:15.239Z,9.87
2024-02-03T08:51:42.550Z,9.96
2024-02-03T08:54:09.190Z,9.98
2024-02-03T08:56:35.765Z,10.03
2024-02-03T08:59:02.314Z,10.05
2024-02-03T09:01:28.999Z,10.10
2024-02-03T09:03:55.588Z,10.13
2024-02-03T09:06:22.381Z,10.18
2024-02-03T09:08:49.190Z,10.20
2024-02-03T09:11:15.748Z,10.28
2024-02-03T09:13:42.259Z,10.31
2024-02-03T09:16:08.747Z,10.45
2024-02-03T09:18:35.371Z,10.57
2024-02-03T09:21:01.975Z,10.69
2024-02-03T09:23:28.506Z,10.76
2024-02-03T09:25:55.223Z,10.83
2024-02-03T09:28:21.754Z,10.96
2024-02-03T09:30:48.409Z,11.13
2024-02-03T09:33:15.061Z,11.23
2024-02-03T09:35:41.912Z,11.31
2024-02-03T09:38:08.576Z,11.41
2024-02-03T09:40:35.093Z,11.41
2024-02-03T09:43:02.286Z,11.43
2024-02-03T09:45:29.999Z,11.43
2024-02-03T09:47:56.784Z,11.38
2024-02-03T09:50:23.526Z,11.40
2024-02-03T09:52:50.522Z,11.44
2024-02-03T09:55:19.412Z,11.45
2024-02-03T09:57:49.661Z,11.50
2024-02-03T10:00:18.349Z,11.55
2024-02-03T10:02:44.953Z,11.56
2024-02-03T10:05:11.649Z,11.58
2024-02-03T10:07:38.301Z,11.56
2024-02-03T10:12:35.839Z,11.59
2024-02-03T10:15:07.628Z,11.61
2024-02-03T10:17:34.990Z,11.65
2024-02-03T10:20:01.831Z,11.64
2024-02-03T10:22:28.663Z,11.67
2024-02-03T10:25:13.929Z,11.68
2024-02-03T10:27:41.665Z,11.68
2024-02-03T10:30:08.836Z,11.65
2024-02-03T10:32:35.939Z,11.64
2024-02-03T10:35:04.161Z,11.64
2024-02-03T10:37:30.906Z,11.62
2024-02-03T10:39:57.606Z,11.64
2024-02-03T10:42:27.043Z,11.61
2024-02-03T10:45:01.024Z,11.59
2024-02-03T10:47:28.357Z,11.61
2024-02-03T10:49:57.459Z,11.58
2024-02-03T10:52:25.970Z,11.63
2024-02-03T10:54:58.118Z,11.65
2024-02-03T10:57:26.494Z,11.65
2024-02-03T11:00:06.165Z,11.68
2024-02-03T11:02:32.687Z,11.66
2024-02-03T11:05:02.181Z,11.64
2024-02-03T11:07:31.544Z,11.65
2024-02-03T11:10:04.581Z,11.61
2024-02-03T11:12:38.109Z,11.58
2024-02-03T11:15:16.011Z,11.58
2024-02-03T11:17:46.271Z,11.55
2024-02-03T11:20:23.944Z,11.58
2024-02-03T11:22:59.486Z,11.56
2024-02-03T11:25:28.472Z,11.61
2024-02-03T11:27:55.036Z,11.61
2024-02-03T11:30:21.652Z,11.60
2024-02-03T11:32:49.346Z,11.64
2024-02-03T11:35:16.150Z,11.68
2024-02-03T11:37:42.790Z,11.68
2024-02-03T11:40:11.188Z,11.70
2024-02-03T11:42:38.641Z,11.67
2024-02-03T11:45:10.322Z,11.67
2024-02-03T11:47:36.886Z,11.66
2024-02-03T11:50:03.719Z,11.67
2024-02-03T11:52:30.233Z,11.63
2024-02-03T11:54:56.828Z,11.61
2024-02-03T11:57:23.657Z,11.65
2024-02-03T12:00:02.310Z,11.61
2024-02-03T12:02:29.598Z,11.58
2024-02-03T12:04:56.339Z,11.60
2024-02-03T12:07:23.030Z,11.62
2024-02-03T12:09:49.639Z,11.60
2024-02-03T12:12:16.670Z,11.60
2024-02-03T12:14:43.178Z,11.64
2024-02-03T12:17:12.826Z,11.64
2024-02-03T12:19:39.915Z,11.66
2024-02-03T12:22:06.742Z,11.71
2024-02-03T12:24:33.514Z,11.74
2024-02-03T12:27:01.043Z,11.80
2024-02-03T12:29:27.556Z,11.80
2024-02-03T12:31:54.082Z,11.82
2024-02-03T12:34:20.715Z,11.83
2024-02-03T12:36:47.417Z,11.84
2024-02-03T12:39:15.024Z,11.87
2024-02-03T12:41:41.648Z,11.86
2024-02-03T12:44:08.214Z,11.87
2024-02-03T12:46:35.532Z,11.87
2024-02-03T12:49:02.216Z,11.85
2024-02-03T12:51:30.194Z,11.86
2024-02-03T12:53:58.938Z,11.76
2024-02-03T12:56:25.477Z,11.77
2024-02-03T12:58:52.118Z,11.77
2024-02-03T13:01:18.982Z,11.74
2024-02-03T13:03:45.640Z,11.69
2024-02-03T13:06:13.410Z,11.66
2024-02-03T13:08:40.086Z,11.62
2024-02-03T13:11:07.884Z,11.59
2024-02-03T13:13:34.410Z,11.51
2024-02-03T13:16:00.951Z,11.46
2024-02-03T13:18:27.675Z,11.45
2024-02-03T13:20:54.290Z,11.41
2024-02-03T13:23:20.814Z,11.36
2024-02-03T13:25:47.485Z,11.35
2024-02-03T13:28:13.980Z,11.31
2024-02-03T13:30:40.548Z,11.29
2024-02-03T13:33:07.194Z,11.26
2024-02-03T13:35:33.793Z,11.26
2024-02-03T13:38:00.445Z,11.24
2024-02-03T13:40:27.070Z,11.24
2024-02-03T13:42:54.043Z,11.22
2024-02-03T13:45:20.995Z,11.21
2024-02-03T13:47:51.221Z,11.23
2024-02-03T13:50:19.742Z,11.20
2024-02-03T13:52:46.825Z,11.20
2024-02-03T13:55:14.023Z,11.22
2024-02-03T13:57:41.080Z,11.20
2024-02-03T14:00:08.804Z,11.19
2024-02-03T14:02:38.463Z,11.20
2024-02-03T14:05:05.675Z,11.23
2024-02-03T14:07:32.274Z,11.23
2024-02-03T14:09:58.852Z,11.23
2024-02-03T14:12:25.462Z,11.19
2024-02-03T14:14:52.166Z,11.33
2024-02-03T14:17:20.559Z,11.41
2024-02-03T14:19:47.570Z,11.49
2024-02-03T14:22:15.302Z,11.54
2024-02-03T14:24:42.926Z,11.57
2024-02-03T14:27:10.290Z,11.58
2024-02-03T14:29:37.024Z,11.56
2024-02-03T14:32:07.567Z,11.54
2024-02-03T14:34:34.510Z,11.53
2024-02-03T14:37:01.298Z,11.53
2024-02-03T14:39:29.132Z,11.49
2024-02-03T14:41:56.463Z,11.47
2024-02-03T14:44:24.985Z,11.49
2024-02-03T14:46:51.676Z,11.46
2024-02-03T14:49:19.212Z,11.41
2024-02-03T14:51:46.084Z,11.46
2024-02-03T14:54:12.883Z,11.42
2024-02-03T14:56:39.720Z,11.45
2024-02-03T14:59:06.288Z,11.41
2024-02-03T15:01:32.874Z,11.43
2024-02-03T15:03:59.505Z,11.46
2024-02-03T15:06:26.183Z,11.47
2024-02-03T15:08:53.216Z,11.52
2024-02-03T15:11:19.819Z,11.48
2024-02-03T15:13:46.315Z,11.50
2024-02-03T15:16:13.021Z,11.48
2024-02-03T15:18:39.744Z,11.48
2024-02-03T15:21:06.647Z,11.47
2024-02-03T15:23:33.440Z,11.47
2024-02-03T15:26:00.053Z,11.44
2024-02-03T15:28:29.530Z,11.42
2024-02-03T15:30:58.195Z,11.40
2024-02-03T15:33:24.983Z,11.40
2024-02-03T15:35:51.561Z,11.37
2024-02-03T15:38:18.060Z,11.36
2024-02-03T15:40:44.801Z,11.37
2024-02-03T15:43:11.388Z,11.34
2024-02-03T15:45:38.241Z,11.33
2024-02-03T15:48:06.135Z,11.30
2024-02-03T15:50:34.078Z,11.27
2024-02-03T15:53:00.700Z,11.27
2024-02-03T15:55:29.787Z,11.25
2024-02-03T15:57:57.528Z,11.23
2024-02-03T16:00:24.343Z,11.20
2024-02-03T16:02:50.959Z,11.19
2024-02-03T16:05:17.652Z,11.17
2024-02-03T16:07:44.429Z,11.18
2024-02-03T16:10:13.926Z,11.15
2024-02-03T16:12:40.725Z,11.13
2024-02-03T16:15:08.203Z,11.11
2024-02-03T16:17:35.006Z,11.10
2024-02-03T16:20:05.629Z,11.10
2024-02-03T16:22:33.512Z,11.08
2024-02-03T16:25:00.271Z,11.07
2024-02-03T16:27:26.975Z,11.01
2024-02-03T16:29:53.559Z,11.01
2024-02-03T16:32:20.084Z,11.01
2024-02-03T16:34:46.751Z,10.94
2024-02-03T16:37:13.454Z,10.95
2024-02-03T16:39:40.163Z,10.93
2024-02-03T16:42:06.957Z,10.90
2024-02-03T16:44:33.446Z,10.91
2024-02-03T16:46:59.960Z,10.88
2024-02-03T16:49:26.754Z,10.87
2024-02-03T16:51:53.497Z,10.85
2024-02-03T16:54:20.423Z,10.83
2024-02-03T16:56:47.022Z,10.81
2024-02-03T16:59:13.568Z,10.77
2024-02-03T17:01:47.087Z,10.78
2024-02-03T17:04:20.259Z,10.78
2024-02-03T17:06:49.486Z,10.74
2024-02-03T17:09:20.077Z,10.69
2024-02-03T17:11:46.735Z,10.72
2024-02-03T17:14:15.185Z,10.72
2024-02-03T17:16:42.362Z,10.69
2024-02-03T17:19:10.078Z,10.65
2024-02-03T17:21:37.180Z,10.64
2024-02-03T17:24:04.510Z,10.61
2024-02-03T17:26:31.322Z,10.56
2024-02-03T17:28:57.885Z,10.55
2024-02-03T17:31:24.654Z,10.49
2024-02-03T17:33:51.432Z,10.46
2024-02-03T17:36:18.104Z,10.43
2024-02-03T17:38:44.673Z,10.46
2024-02-03T17:41:11.224Z,10.43
2024-02-03T17:43:37.842Z,10.40
2024-02-03T17:46:04.650Z,10.37
2024-02-03T17:48:31.371Z,10.32
2024-02-03T17:50:57.942Z,10.28
2024-02-03T17:53:24.438Z,10.27
2024-02-03T17:55:50.925Z,10.21
2024-02-03T17:58:17.510Z,10.16
2024-02-03T18:00:44.126Z,10.10
2024-02-03T18:03:10.884Z,10.03
2024-02-03T18:05:37.456Z,9.93
2024-02-03T18:08:04.212Z,9.92
2024-02-03T18:10:30.810Z,9.86
2024-02-03T18:12:57.362Z,9.79
2024-02-03T18:15:25.986Z,9.77
2024-02-03T18:17:52.762Z,9.69
2024-02-03T18:20:20.052Z,9.65
2024-02-03T18:22:46.791Z,9.61
2024-02-03T18:25:13.328Z,9.54
2024-02-03T18:27:39.988Z,9.53
2024-02-03T18:30:07.217Z,9.50
2024-02-03T18:32:33.946Z,9.45
2024-02-03T18:35:01.038Z,9.46
2024-02-03T18:37:27.586Z,9.43
2024-02-03T18:39:54.558Z,9.41
2024-02-03T18:42:21.222Z,9.38
2024-02-03T18:44:47.749Z,9.36
2024-02-03T18:47:14.323Z,9.36
2024-02-03T18:49:41.026Z,9.38
2024-02-03T18:52:07.633Z,9.35
2024-02-03T18:54:34.174Z,9.34
2024-02-03T18:57:00.878Z,9.35
2024-02-03T18:59:27.381Z,9.39
2024-02-03T19:01:53.917Z,9.45
2024-02-03T19:04:21.920Z,9.47
2024-02-03T19:06:50.241Z,9.50
2024-02-03T19:09:16.892Z,9.54
2024-02-03T19:11:44.039Z,9.57
2024-02-03T19:14:10.522Z,9.53
2024-02-03T19:16:37.037Z,9.54
2024-02-03T19:19:03.606Z,9.54
2024-02-03T19:21:30.348Z,9.51
2024-02-03T19:23:56.913Z,9.53
2024-02-03T19:26:23.675Z,9.53
2024-02-03T19:28:50.224Z,9.53
2024-02-03T19:31:16.832Z,9.57
2024-02-03T19:33:43.976Z,9.57
2024-02-03T19:36:10.603Z,9.61
2024-02-03T19:38:37.173Z,9.63
2024-02-03T19:41:04.727Z,9.63
2024-02-03T19:43:31.237Z,9.62
2024-02-03T19:45:59.059Z,9.63
2024-02-03T19:48:26.501Z,9.64
2024-02-03T19:50:53.470Z,9.67
2024-02-03T19:53:20.066Z,9.67
2024-02-03T19:55:46.572Z,9.70
2024-02-03T19:58:13.297Z,9.70
2024-02-03T20:00:39.993Z,9.71
2024-02-03T20:03:07.236Z,9.72
2024-02-03T20:05:33.738Z,9.71
2024-02-03T20:08:01.212Z,9.75
2024-02-03T20:10:30.253Z,9.76
2024-02-03T20:12:57.299Z,9.74
2024-02-03T20:15:24.036Z,9.76
2024-02-03T20:17:50.783Z,9.76
2024-02-03T20:20:17.503Z,9.74
2024-02-03T20:22:44.403Z,9.63
2024-02-03T20:25:11.051Z,9.57
2024-02-03T20:27:38.382Z,9.43
2024-02-03T20:30:06.239Z,9.45
2024-02-03T20:32:33.149Z,9.47
2024-02-03T20:34:59.975Z,9.48
2024-02-03T20:37:26.832Z,9.45
2024-02-03T20:39:53.396Z,9.45
2024-02-03T20:42:21.327Z,9.46
2024-02-03T20:44:48.065Z,9.44
2024-02-03T20:47:14.658Z,9.43
2024-02-03T20:49:41.377Z,9.44
2024-02-03T20:52:08.258Z,9.44
2024-02-03T20:54:34.846Z,9.45
2024-02-03T20:57:01.381Z,9.46
2024-02-03T20:59:27.910Z,9.47
2024-02-03T21:01:54.520Z,9.41
2024-02-03T21:04:21.236Z,9.50
2024-02-03T21:06:47.817Z,9.54
2024-02-03T21:09:15.200Z,9.56
2024-02-03T21:11:42.549Z,9.56
2024-02-03T21:14:09.261Z,9.58
2024-02-03T21:16:37.316Z,9.61
2024-02-03T21:19:04.278Z,9.60
2024-02-03T21:21:38.687Z,9.63
2024-02-03T21:24:06.164Z,9.61
2024-02-03T21:26:33.362Z,9.62
2024-02-03T21:29:00.448Z,9.65
2024-02-03T21:31:28.326Z,9.65
2024-02-03T21:33:55.154Z,9.62
2024-02-03T21:36:21.867Z,9.62
2024-02-03T21:38:49.452Z,9.64
2024-02-03T21:41:16.507Z,9.63
2024-02-03T21:43:43.106Z,9.61
2024-02-03T21:46:09.719Z,9.63
2024-02-03T21:48:36.394Z,9.63
2024-02-03T21:51:03.074Z,9.62
2024-02-03T21:53:29.663Z,9.66
2024-02-03T21:55:57.215Z,9.67
2024-02-03T21:58:24.416Z,9.70
2024-02-03T22:00:52.454Z,9.68
2024-02-03T22:03:19.505Z,9.73
2024-02-03T22:05:46.311Z,9.73
2024-02-03T22:08:13.736Z,9.78
2024-02-03T22:10:40.465Z,9.78
2024-02-03T22:13:07.356Z,9.77
2024-02-03T22:15:34.364Z,9.79
2024-02-03T22:18:01.325Z,9.80
2024-02-03T22:20:27.925Z,9.82
2024-02-03T22:22:54.499Z,9.81
2024-02-03T22:25:21.079Z,9.85
2024-02-03T22:27:47.660Z,9.87
2024-02-03T22:30:15.524Z,9.88
2024-02-03T22:32:42.533Z,9.90
2024-02-03T22:35:09.829Z,9.89
2024-02-03T22:37:37.282Z,9.92
2024-02-03T22:40:05.378Z,9.91
2024-02-03T22:42:32.100Z,9.95
2024-02-03T22:44:58.652Z,9.94
2024-02-03T22:47:25.278Z,9.97
2024-02-03T22:49:52.003Z,9.96
2024-02-03T22:52:18.723Z,9.99
2024-02-03T22:54:45.287Z,9.98
2024-02-03T22:57:11.891Z,9.96
2024-02-03T22:59:38.449Z,9.96
2024-02-03T23:02:06.111Z,9.92
2024-02-03T23:04:32.814Z,9.93
2024-02-03T23:06:59.417Z,9.93
2024-02-03T23:09:26.005Z,9.94
2024-02-03T23:11:52.965Z,9.93
2024-02-03T23:14:19.455Z,9.90
2024-02-03T23:16:46.109Z,9.93
2024-02-03T23:19:12.906Z,9.94
2024-02-03T23:21:40.698Z,9.94
2024-02-03T23:24:07.962Z,9.93
2024-02-03T23:26:34.632Z,9.95
2024-02-03T23:29:01.204Z,9.99
2024-02-03T23:31:27.863Z,9.99
2024-02-03T23:33:58.633Z,9.97
2024-02-03T23:36:26.270Z,9.99
2024-02-03T23:38:53.315Z,10.00
2024-02-03T23:41:20.196Z,9.99
2024-02-03T23:43:47.624Z,9.96
2024-02-03T23:46:14.269Z,9.99
2024-02-03T23:48:40.922Z,10.00
2024-02-03T23:51:07.572Z,9.98
2024-02-03T23:53:34.113Z,10.00
2024-02-03T23:56:00.698Z,10.00
2024-02-03T23:58:27.306Z,9.97
